»·PEaware :: N622SB S31-W04

N622SB :: S31-W04

FLIGHT INFORMATION

Flight Status: Arrived
Operator: Privately registered:
United States
More flights under this callsign
Pilot: Simon B. (27931)
Aircraft: PIPER PA-44 SEMINOLE
(PA44)
More flights by this aircraft type
Origin: S31 Lopez Island
United States
Destination: W04 Ocean Shores Mun
United States
More flights between these airports :: More routes between these airports
Route: JIGEB V495 DIGGN V165 CARRO V27 HQM
File this flight plan on PilotEdge
Remarks:
Altitude:
(Current/Filed)
8,000ft
Speed:
(Current/Filed)
140kts
Departed: 17-Jan-21 10:54 AM
Arrived: 17-Jan-21 11:49 AM
Distance/Time
Traveled:
101nm/0:54
Distance/Time
To Go:
Arrived

Flight Plot

Page will automatically refresh every two minutes.

Flight plan parsing failed; only flown route is shown


Map Options




Map Legend


Flown Route
Filed Route
Departure Airport
Arrival Airport
Navaid (VOR, NDB)
Fix

Horizontal Profiles

Position Reports

Time Latitude Longitude Heading Altitude Ground
Speed
17-Jan-21 10:39 48.486314 -122.936856 177 204ft 0kts
17-Jan-21 10:40 48.486314 -122.936856 177 204ft 0kts
17-Jan-21 10:41 48.486314 -122.936856 177 204ft 0kts
17-Jan-21 10:42 48.486314 -122.936856 177 204ft 0kts
17-Jan-21 10:43 48.486314 -122.936856 177 204ft 0kts
17-Jan-21 10:44 48.486314 -122.936856 177 204ft 0kts
17-Jan-21 10:45 48.486314 -122.936856 177 204ft 0kts
17-Jan-21 10:46 48.486766 -122.937055 359 206ft 5kts
17-Jan-21 10:47 48.487746 -122.936890 271 210ft 0kts
17-Jan-21 10:48 48.487747 -122.936890 271 210ft 0kts
17-Jan-21 10:49 48.487746 -122.936890 271 210ft 0kts
17-Jan-21 10:50 48.487747 -122.936890 271 210ft 0kts
17-Jan-21 10:51 48.487775 -122.936987 320 211ft 2kts
17-Jan-21 10:52 48.487839 -122.937671 182 212ft 0kts
17-Jan-21 10:53 48.471109 -122.937713 182 1160ft 82kts
17-Jan-21 10:54 48.446548 -122.937420 183 2695ft 87kts
17-Jan-21 10:55 48.421891 -122.950043 213 4094ft 104kts
17-Jan-21 10:56 48.393520 -122.967659 207 5605ft 113kts
17-Jan-21 10:57 48.361621 -122.982131 195 6896ft 125kts
17-Jan-21 10:58 48.326062 -122.991677 198 8053ft 136kts
17-Jan-21 10:59 48.283818 -123.006099 201 7954ft 163kts
17-Jan-21 11:00 48.240129 -123.017878 152 8002ft 167kts
17-Jan-21 11:01 48.199158 -122.979733 152 7942ft 172kts
17-Jan-21 11:02 48.154202 -122.959642 174 7933ft 165kts
17-Jan-21 11:03 48.112699 -122.931082 138 8031ft 168kts
17-Jan-21 11:04 48.078573 -122.882584 136 8185ft 170kts
17-Jan-21 11:05 48.039006 -122.843845 153 8161ft 176kts
17-Jan-21 11:06 47.995994 -122.808481 152 7984ft 175kts
17-Jan-21 11:07 47.952772 -122.778226 165 8011ft 171kts
17-Jan-21 11:08 47.906212 -122.769440 192 8041ft 166kts
17-Jan-21 11:09 47.860664 -122.779034 193 8077ft 165kts
17-Jan-21 11:10 47.814298 -122.786257 192 8055ft 165kts
17-Jan-21 11:11 47.767594 -122.792692 191 8033ft 170kts
17-Jan-21 11:12 47.720709 -122.801120 191 7966ft 170kts
17-Jan-21 11:13 47.674277 -122.807115 189 7980ft 167kts
17-Jan-21 11:14 47.628112 -122.813205 191 8055ft 166kts
17-Jan-21 11:15 47.581658 -122.821800 191 8084ft 172kts
17-Jan-21 11:16 47.533532 -122.827369 193 8009ft 172kts
17-Jan-21 11:17 47.487441 -122.839787 199 8017ft 168kts
17-Jan-21 11:18 47.440898 -122.847534 185 8011ft 170kts
17-Jan-21 11:19 47.393398 -122.847175 185 8058ft 170kts
17-Jan-21 11:20 47.346070 -122.850427 189 8043ft 170kts
17-Jan-21 11:21 47.305239 -122.873851 233 8100ft 155kts
17-Jan-21 11:22 47.279474 -122.922840 253 8047ft 147kts
17-Jan-21 11:23 47.264526 -122.978817 257 8071ft 146kts
17-Jan-21 11:24 47.249471 -123.034578 258 8077ft 149kts
17-Jan-21 11:25 47.235884 -123.092152 254 8004ft 147kts
17-Jan-21 11:26 47.219054 -123.147378 254 8053ft 146kts
17-Jan-21 11:27 47.204982 -123.204382 260 7957ft 149kts
17-Jan-21 11:28 47.188200 -123.259808 258 8053ft 149kts
17-Jan-21 11:29 47.173164 -123.317295 257 7910ft 149kts
17-Jan-21 11:30 47.158648 -123.373214 258 7996ft 146kts
17-Jan-21 11:31 47.145820 -123.429175 256 8083ft 146kts
17-Jan-21 11:32 47.131447 -123.484825 261 7637ft 145kts
17-Jan-21 11:33 47.121372 -123.542096 259 6782ft 149kts
17-Jan-21 11:34 47.109530 -123.599970 256 6113ft 148kts
17-Jan-21 11:35 47.095852 -123.657863 255 5363ft 152kts
17-Jan-21 11:36 47.082455 -123.715880 254 4721ft 149kts
17-Jan-21 11:37 47.068451 -123.772909 255 4118ft 147kts
17-Jan-21 11:38 47.057751 -123.830967 260 3988ft 145kts
17-Jan-21 11:39 47.049225 -123.888126 261 3862ft 141kts
17-Jan-21 11:40 47.037557 -123.944304 253 3270ft 144kts
17-Jan-21 11:41 47.014316 -123.991216 230 2496ft 136kts
17-Jan-21 11:42 46.989896 -124.033147 239 1846ft 131kts
17-Jan-21 11:43 46.982960 -124.080145 273 1234ft 114kts
17-Jan-21 11:44 46.991877 -124.119927 334 1115ft 94kts
17-Jan-21 11:46 47.014755 -124.121853 357 1126ft 90kts
17-Jan-21 11:47 47.031903 -124.136295 261 1108ft 85kts
17-Jan-21 11:48 47.011171 -124.145517 172 285ft 80kts
17-Jan-21 11:49 46.999424 -124.142825 259 12ft 5kts
17-Jan-21 11:50 47.000005 -124.144091 252 13ft 0kts

Navigation Log

Ident Type
Flight plan parsing failed, navigation log unavailable